Flight Track Log - Related Links

Times and Time Zones

All times are in EDT time to prevent confusion due to time zone crossing. See the UAL4407 flight status page for this flight to view local times or setup timezone preferences in your user account.


Time Position Orientation Groundspeed Altitude Reporting Facility
EDT Latitude Longitude Course Direction KTS MPH feet Rate Location/Type
Mon 06:16:28 AM 42.9500 -71.4167 280° West 160 184 900  Level KA90
Mon 06:18:03 AM 43.0250 -71.4064 North 211 243 4,800 2,632 Climbing Boston Center
Mon 06:19:00 AM 42.9578 -71.7124 280° West  Level FlightAware Approximate
Mon 06:19:03 AM 43.0903 -71.4592 329° Northwest 237 273 7,700  Level Boston Center
Mon 06:20:00 AM 42.9675 -71.8070 280° West  Level FlightAware Approximate
Mon 06:20:03 AM 43.1117 -71.5500 288° West 242 278 10,100  Level Boston Center
Mon 06:21:00 AM 42.9794 -71.9014 280° West  Level FlightAware Approximate
Mon 06:21:03 AM 43.1356 -71.6775 284° West 300 345 11,800  Level Boston Center
Mon 06:22:03 AM 43.1197 -71.7944 260° West 331 381 14,000 2,350 Climbing Boston Center
Mon 06:23:03 AM 43.0953 -71.9369 257° West 343 395 16,500 2,100 Climbing Boston Center
Mon 06:24:03 AM 43.0769 -72.0478 257° West 348 400 18,200 1,250 Climbing Boston Center
Mon 06:25:03 AM 43.0503 -72.1958 256° West 354 407 19,000 1,000 Climbing Boston Center
Mon 06:26:03 AM 43.0339 -72.3122 259° West 359 413 20,200 1,250 Climbing Boston Center
Mon 06:27:03 AM 43.0131 -72.4486 258° West 359 413 21,500 900 Climbing Boston Center
Mon 06:28:03 AM 42.9839 -72.5989 255° West 377 434 22,000 250 Climbing Boston Center
Mon 06:29:03 AM 42.9439 -72.7633 252° West 411 473 22,000  Level Boston Center
Mon 06:30:03 AM 42.9164 -72.9164 256° West 416 479 22,000  Level Boston Center
Mon 06:31:03 AM 42.8947 -73.0522 258° West 416 479 22,000 -300 Level Boston Center
Mon 06:32:03 AM 42.8647 -73.2022 255° West 411 473 21,400 -800 Descending Boston Center
Mon 06:33:03 AM 42.8364 -73.3547 256° West 411 473 20,400 -1,000 Descending Boston Center
Mon 06:34:03 AM 42.8081 -73.4986 255° West 411 473 19,400 -1,000 Descending Boston Center
Mon 06:35:03 AM 42.7756 -73.6367 252° West 401 461 18,400 -750 Descending Boston Center
Mon 06:36:03 AM 42.6889 -73.7394 221° Southwest 378 435 17,900 -700 Descending Boston Center
Mon 06:37:03 AM 42.5986 -73.7883 202° Southwest 381 438 17,000 -900 Descending Boston Center
Mon 06:38:03 AM 42.4936 -73.8536 205° Southwest 381 438 16,100 -500 Descending Boston Center
Mon 06:39:03 AM 42.4075 -73.9050 204° Southwest 376 433 16,000 -50 Descending Boston Center
Mon 06:40:03 AM 42.3047 -73.9672 204° Southwest 381 438 16,000  Level Boston Center
Mon 06:41:03 AM 42.2186 -74.0156 203° Southwest 376 433 16,000  Level Boston Center
Mon 06:42:03 AM 42.1156 -74.0803 205° Southwest 376 433 16,000 -350 Level Boston Center
Mon 06:43:03 AM 42.0169 -74.1278 200° South 382 440 15,300 -800 Descending Boston Center
Mon 06:44:03 AM 41.9267 -74.1700 199° South 377 434 14,400 -1,000 Descending Boston Center
Mon 06:45:03 AM 41.8197 -74.2147 197° South 371 427 13,300 -1,000 Descending Boston Center
Mon 06:46:03 AM 41.7314 -74.2539 198° South 366 421 12,400 -1,100 Descending Boston Center
Mon 06:47:03 AM 41.6306 -74.2983 198° South 366 421 11,100 -1,250 Descending Boston Center
Mon 06:48:03 AM 41.5572 -74.3294 198° South 333 383 9,900 -980 Descending Boston Center
Mon 06:50:00 AM 41.3594 -74.4007 198° South  Level FlightAware Approximate
Mon 06:51:08 AM 41.3333 -74.4167 198° South 263 303 7,100  Level New York TRACON
Mon 06:52:08 AM 41.2667 -74.4500 201° Southwest 266 306 7,100  Level New York TRACON
Mon 06:53:02 AM 41.2000 -74.4833 201° Southwest 263 303 7,100 -53 Level New York TRACON
Mon 06:54:02 AM 41.1333 -74.5167 201° Southwest 271 312 7,000 -350 Descending New York TRACON
Mon 06:55:02 AM 41.0667 -74.5333 191° South 254 292 6,400 -810 Descending New York TRACON
Mon 06:56:08 AM 40.9833 -74.5333 180° South 251 289 5,300 -650 Descending New York TRACON
Mon 06:57:02 AM 40.9167 -74.5500 191° South 257 296 5,100 -111 Descending New York TRACON
Mon 06:57:56 AM 40.8667 -74.5500 180° South 261 300 5,100  Level New York TRACON
Mon 06:58:56 AM 40.7833 -74.5167 163° South 256 295 5,100  Level New York TRACON
Mon 06:59:56 AM 40.7167 -74.4833 159° South 257 296 5,100  Level New York TRACON
Mon 07:00:56 AM 40.6500 -74.4667 169° South 255 293 5,100 -316 Level New York TRACON
Mon 07:01:50 AM 40.6000 -74.4333 153° Southeast 252 290 4,500 -500 Descending New York TRACON
Mon 07:02:56 AM 40.5500 -74.3667 135° Southeast 228 262 4,100 -263 Descending New York TRACON
Mon 07:03:44 AM 40.5333 -74.3000 108° East 219 252 4,000 -125 Descending New York TRACON

Login

Don't have an account? Register now (free) for customized features, flight alerts, and more!